createdAt,value
2023-01-19T00:00:08.462Z,97887.44
2023-01-19T00:02:35.609Z,97890.09
2023-01-19T00:05:04.083Z,97897.66
2023-01-19T00:07:31.427Z,97896.50
2023-01-19T00:09:58.687Z,97891.66
2023-01-19T00:12:26.290Z,97903.69
2023-01-19T00:14:53.484Z,97895.59
2023-01-19T00:17:20.648Z,97895.94
2023-01-19T00:19:48.112Z,97896.38
2023-01-19T00:22:15.257Z,97894.69
2023-01-19T00:24:42.624Z,97903.19
2023-01-19T00:27:10.095Z,97893.56
2023-01-19T00:29:37.287Z,97891.81
2023-01-19T00:32:04.789Z,97888.19
2023-01-19T00:34:39.660Z,97890.97
2023-01-19T00:37:07.851Z,97888.81
2023-01-19T00:39:35.263Z,97890.69
2023-01-19T00:42:20.951Z,97883.22
2023-01-19T00:44:48.419Z,97883.50
2023-01-19T00:47:15.637Z,97886.88
2023-01-19T00:49:42.848Z,97879.34
2023-01-19T00:52:10.892Z,97877.44
2023-01-19T00:54:38.106Z,97869.50
2023-01-19T00:57:05.326Z,97880.31
2023-01-19T00:59:32.891Z,97880.81
2023-01-19T01:02:00.320Z,97884.31
2023-01-19T01:04:27.707Z,97882.97
2023-01-19T01:06:55.221Z,97880.66
2023-01-19T01:09:22.449Z,97876.28
2023-01-19T01:11:49.621Z,97888.22
2023-01-19T01:14:19.184Z,97888.66
2023-01-19T01:16:46.538Z,97887.88
2023-01-19T01:19:13.720Z,97889.47
2023-01-19T01:21:41.279Z,97893.56
2023-01-19T01:24:08.828Z,97898.59
2023-01-19T01:26:35.984Z,97894.69
2023-01-19T01:29:04.860Z,97893.16
2023-01-19T01:31:32.112Z,97894.41
2023-01-19T01:33:59.330Z,97889.69
2023-01-19T01:36:29.185Z,97892.97
2023-01-19T01:38:56.539Z,97908.53
2023-01-19T01:41:25.358Z,97906.41
2023-01-19T01:43:56.502Z,97913.03
2023-01-19T01:46:24.189Z,97910.63
2023-01-19T01:48:57.253Z,97913.53
2023-01-19T01:51:26.441Z,97914.34
2023-01-19T01:54:02.762Z,97916.62
2023-01-19T01:56:32.835Z,97933.53
2023-01-19T01:59:00.035Z,97931.12
2023-01-19T02:01:45.943Z,97935.91
2023-01-19T02:04:13.439Z,97941.13
2023-01-19T02:06:59.260Z,97943.13
2023-01-19T02:09:45.367Z,97938.56
2023-01-19T02:12:31.263Z,97940.81
2023-01-19T02:14:58.685Z,97917.47
2023-01-19T02:17:25.865Z,97893.50
2023-01-19T02:19:53.891Z,97871.28
2023-01-19T02:22:25.794Z,97882.47
2023-01-19T02:24:53.039Z,97897.47
2023-01-19T02:27:20.628Z,97901.97
2023-01-19T02:29:47.846Z,97919.87
2023-01-19T02:32:15.029Z,97934.09
2023-01-19T02:34:42.517Z,97938.53
2023-01-19T02:37:13.126Z,97925.09
2023-01-19T02:39:45.194Z,97906.47
2023-01-19T02:42:13.639Z,97901.69
2023-01-19T02:44:41.098Z,97903.44
2023-01-19T02:47:08.574Z,97894.09
2023-01-19T02:49:36.608Z,97894.56
2023-01-19T02:52:04.331Z,97882.87
2023-01-19T02:54:31.496Z,97903.63
2023-01-19T02:57:17.575Z,97905.56
2023-01-19T03:00:03.303Z,97911.28
2023-01-19T03:02:43.700Z,97907.97
2023-01-19T03:05:29.814Z,97918.53
2023-01-19T03:08:09.450Z,97910.00
2023-01-19T03:10:36.629Z,97905.06
2023-01-19T03:13:19.482Z,97913.59
2023-01-19T03:15:56.696Z,97919.41
2023-01-19T03:18:25.186Z,97936.13
2023-01-19T03:20:53.864Z,97952.75
2023-01-19T03:23:21.179Z,97951.31
2023-01-19T03:25:48.688Z,97949.97
2023-01-19T03:28:16.312Z,97928.16
2023-01-19T03:30:46.647Z,97899.19
2023-01-19T03:33:19.038Z,97879.63
2023-01-19T03:35:48.963Z,97873.84
2023-01-19T03:38:17.273Z,97877.44
2023-01-19T03:40:44.568Z,97879.81
2023-01-19T03:43:11.780Z,97863.31
2023-01-19T03:45:39.262Z,97852.84
2023-01-19T03:48:06.643Z,97849.50
2023-01-19T03:50:33.850Z,97858.81
2023-01-19T03:53:01.677Z,97866.56
2023-01-19T03:55:29.101Z,97855.72
2023-01-19T03:57:56.258Z,97852.31
2023-01-19T04:00:24.259Z,97865.50
2023-01-19T04:02:51.961Z,97896.44
2023-01-19T04:05:19.285Z,97921.28
2023-01-19T04:07:48.141Z,97932.88
2023-01-19T04:10:16.817Z,97908.91
2023-01-19T04:12:44.256Z,97922.97
2023-01-19T04:15:11.574Z,97924.75
2023-01-19T04:17:39.342Z,97937.97
2023-01-19T04:20:06.882Z,97921.84
2023-01-19T04:22:34.142Z,97927.19
2023-01-19T04:25:01.790Z,97914.25
2023-01-19T04:27:29.138Z,97905.50
2023-01-19T04:29:56.479Z,97891.22
2023-01-19T04:32:23.944Z,97888.78
2023-01-19T04:34:51.583Z,97900.25
2023-01-19T04:37:18.797Z,97892.47
2023-01-19T04:39:46.606Z,97892.81
2023-01-19T04:42:13.744Z,97880.19
2023-01-19T04:44:40.889Z,97880.44
2023-01-19T04:47:08.419Z,97892.25
2023-01-19T04:49:38.334Z,97884.59
2023-01-19T04:52:06.161Z,97892.06
2023-01-19T04:54:33.713Z,97911.09
2023-01-19T04:57:00.943Z,97912.81
2023-01-19T04:59:28.213Z,97918.59
2023-01-19T05:01:56.631Z,97919.16
2023-01-19T05:04:24.252Z,97918.34
2023-01-19T05:06:51.915Z,97921.13
2023-01-19T05:09:19.344Z,97919.78
2023-01-19T05:11:46.482Z,97906.25
2023-01-19T05:14:13.707Z,97910.28
2023-01-19T05:16:41.270Z,97908.84
2023-01-19T05:19:08.465Z,97931.03
2023-01-19T05:21:35.738Z,97937.53
2023-01-19T05:24:04.108Z,97955.28
2023-01-19T05:26:31.291Z,97962.59
2023-01-19T05:28:58.481Z,97975.06
2023-01-19T05:31:26.026Z,97975.78
2023-01-19T05:33:53.333Z,97977.06
2023-01-19T05:36:20.483Z,97971.72
2023-01-19T05:38:47.965Z,97970.06
2023-01-19T05:41:15.327Z,97970.34
2023-01-19T05:43:42.483Z,97962.72
2023-01-19T05:46:09.948Z,97953.69
2023-01-19T05:48:37.172Z,97964.56
2023-01-19T05:51:05.196Z,97942.87
2023-01-19T05:53:32.702Z,97947.28
2023-01-19T05:56:04.043Z,97957.09
2023-01-19T05:58:31.497Z,97942.50
2023-01-19T06:01:01.896Z,97943.97
2023-01-19T06:03:29.451Z,97937.47
2023-01-19T06:05:59.612Z,97949.06
2023-01-19T06:08:26.822Z,97952.28
2023-01-19T06:10:54.304Z,97952.53
2023-01-19T06:13:21.509Z,97933.56
2023-01-19T06:15:48.734Z,97918.03
2023-01-19T06:18:16.318Z,97917.44
2023-01-19T06:20:43.515Z,97922.38
2023-01-19T06:23:10.975Z,97907.19
2023-01-19T06:25:39.185Z,97882.87
2023-01-19T06:28:06.357Z,97888.91
2023-01-19T06:30:33.601Z,97889.50
2023-01-19T06:33:01.445Z,97885.94
2023-01-19T06:35:28.744Z,97910.22
2023-01-19T06:37:55.979Z,97931.41
2023-01-19T06:40:23.457Z,97942.59
2023-01-19T06:42:50.782Z,97933.91
2023-01-19T06:45:17.954Z,97956.50
2023-01-19T06:47:47.326Z,97964.19
2023-01-19T06:50:14.497Z,97954.53
2023-01-19T06:52:42.526Z,97946.69
2023-01-19T06:55:10.926Z,97937.72
2023-01-19T06:57:38.621Z,97929.59
2023-01-19T07:00:08.160Z,97935.31
2023-01-19T07:02:36.083Z,97930.44
2023-01-19T07:05:03.607Z,97917.66
2023-01-19T07:07:31.205Z,97925.06
2023-01-19T07:09:58.660Z,97925.97
2023-01-19T07:12:25.837Z,97927.16
2023-01-19T07:14:52.987Z,97936.50
2023-01-19T07:17:20.484Z,97934.31
2023-01-19T07:19:47.750Z,97940.75
2023-01-19T07:22:14.904Z,97952.56
2023-01-19T07:24:42.600Z,97953.84
2023-01-19T07:27:11.589Z,97957.19
2023-01-19T07:29:39.333Z,97965.53
2023-01-19T07:32:07.545Z,97977.72
2023-01-19T07:34:34.812Z,97978.66
2023-01-19T07:37:01.999Z,97983.56
2023-01-19T07:39:30.795Z,97985.72
2023-01-19T07:41:57.994Z,97980.69
2023-01-19T07:44:25.151Z,97985.12
2023-01-19T07:46:52.599Z,97981.97
2023-01-19T07:49:20.679Z,97985.84
2023-01-19T07:51:47.931Z,97991.44
2023-01-19T07:54:15.437Z,97996.09
2023-01-19T07:56:42.579Z,97989.75
2023-01-19T07:59:10.244Z,98001.31
2023-01-19T08:01:37.971Z,97996.44
2023-01-19T08:04:05.880Z,98001.25
2023-01-19T08:06:34.051Z,98003.47
2023-01-19T08:09:01.202Z,98001.03
2023-01-19T08:11:28.660Z,97978.53
2023-01-19T08:13:55.885Z,97989.56
2023-01-19T08:16:23.059Z,97981.50
2023-01-19T08:18:50.797Z,97972.06
2023-01-19T08:21:18.063Z,97975.28
2023-01-19T08:23:45.830Z,97974.31
2023-01-19T08:26:39.885Z,97977.75
2023-01-19T08:29:07.130Z,97972.44
2023-01-19T08:31:34.747Z,97977.12
2023-01-19T08:34:02.316Z,97975.06
2023-01-19T08:36:29.547Z,97983.31
2023-01-19T08:38:57.015Z,97991.38
2023-01-19T08:41:24.257Z,97997.72
2023-01-19T08:43:51.427Z,98005.09
2023-01-19T08:46:21.657Z,97999.06
2023-01-19T08:48:49.369Z,98006.97
2023-01-19T08:51:16.879Z,98002.06
2023-01-19T08:53:44.452Z,98001.75
2023-01-19T08:56:15.013Z,97996.00
2023-01-19T08:58:43.036Z,97991.41
2023-01-19T09:01:11.350Z,97990.91
2023-01-19T09:03:38.668Z,97996.78
2023-01-19T09:06:09.347Z,97993.31
2023-01-19T09:08:36.911Z,97990.22
2023-01-19T09:11:05.236Z,97985.47
2023-01-19T09:13:32.393Z,97994.75
2023-01-19T09:16:02.189Z,98009.69
2023-01-19T09:18:29.393Z,98018.47
2023-01-19T09:20:57.313Z,98012.13
2023-01-19T09:23:25.431Z,98010.97
2023-01-19T09:25:56.418Z,98004.97
2023-01-19T09:28:23.773Z,98006.69
2023-01-19T09:30:51.729Z,98002.16
2023-01-19T09:33:19.336Z,97996.03
2023-01-19T09:35:47.191Z,97996.44
2023-01-19T09:38:15.442Z,98013.69
2023-01-19T09:40:43.902Z,98011.16
2023-01-19T09:43:14.180Z,98006.91
2023-01-19T09:45:46.099Z,97990.97
2023-01-19T09:48:20.183Z,97994.63
2023-01-19T09:50:48.518Z,98003.47
2023-01-19T09:53:34.721Z,97999.94
2023-01-19T09:56:02.188Z,97993.62
2023-01-19T09:58:29.453Z,98002.72
2023-01-19T10:00:59.334Z,98016.75
2023-01-19T10:03:26.951Z,98013.38
2023-01-19T10:06:04.484Z,98015.28
2023-01-19T10:08:35.037Z,98015.59
2023-01-19T10:11:02.303Z,98016.31
2023-01-19T10:13:49.411Z,98023.34
2023-01-19T10:16:22.721Z,98016.09
2023-01-19T10:18:51.767Z,98011.69
2023-01-19T10:21:31.472Z,98015.34
2023-01-19T10:23:59.953Z,98015.59
2023-01-19T10:26:29.845Z,98020.78
2023-01-19T10:29:05.437Z,98022.50
2023-01-19T10:31:33.069Z,98030.72
2023-01-19T10:34:00.376Z,98022.25
2023-01-19T10:36:34.849Z,98022.81
2023-01-19T10:39:04.376Z,98032.34
2023-01-19T10:41:42.034Z,98036.03
2023-01-19T10:44:10.877Z,98038.53
2023-01-19T10:46:47.908Z,98039.56
2023-01-19T10:49:34.151Z,98046.12
2023-01-19T10:52:01.358Z,98036.53
2023-01-19T10:54:29.867Z,98051.47
2023-01-19T10:56:58.056Z,98038.09
2023-01-19T10:59:29.936Z,98044.13
2023-01-19T11:02:17.594Z,98052.13
2023-01-19T11:04:47.341Z,98051.72
2023-01-19T11:07:20.799Z,98059.63
2023-01-19T11:09:48.105Z,98046.62
2023-01-19T11:12:24.167Z,98047.97
2023-01-19T11:14:51.834Z,98042.63
2023-01-19T11:17:19.790Z,98041.97
2023-01-19T11:19:54.547Z,98041.31
2023-01-19T11:22:23.253Z,98028.78
2023-01-19T11:24:50.544Z,98034.63
2023-01-19T11:27:18.372Z,98031.81
2023-01-19T11:29:47.423Z,98040.81
2023-01-19T11:32:20.339Z,98036.19
2023-01-19T11:34:48.044Z,98041.38
2023-01-19T11:37:20.985Z,98045.59
2023-01-19T11:39:49.465Z,98046.91
2023-01-19T11:42:16.911Z,98044.88
2023-01-19T11:45:04.072Z,98044.13
2023-01-19T11:47:40.921Z,98037.75
2023-01-19T11:50:23.661Z,98043.06
2023-01-19T11:53:00.316Z,98045.81
2023-01-19T11:55:27.455Z,98052.91
2023-01-19T11:57:54.939Z,98051.50
2023-01-19T12:00:24.827Z,98053.06
2023-01-19T12:02:53.875Z,98054.81
2023-01-19T12:05:21.124Z,98054.94
2023-01-19T12:07:48.314Z,98058.03
2023-01-19T12:10:18.580Z,98066.88
2023-01-19T12:12:45.752Z,98066.22
2023-01-19T12:15:18.955Z,98068.72
2023-01-19T12:17:48.860Z,98074.22
2023-01-19T12:20:27.205Z,98081.63
2023-01-19T12:22:59.664Z,98087.03
2023-01-19T12:25:31.777Z,98096.22
2023-01-19T12:27:59.388Z,98095.84
2023-01-19T12:30:27.356Z,98096.94
2023-01-19T12:33:13.292Z,98098.62
2023-01-19T12:36:00.807Z,98103.63
2023-01-19T12:38:46.832Z,98102.84
2023-01-19T12:41:33.356Z,98104.06
2023-01-19T12:44:09.787Z,98116.22
2023-01-19T12:46:40.174Z,98114.69
2023-01-19T12:49:10.855Z,98124.38
2023-01-19T12:51:38.446Z,98118.78
2023-01-19T12:54:07.527Z,98129.94
2023-01-19T12:56:35.635Z,98124.53
2023-01-19T12:59:03.324Z,98123.97
2023-01-19T13:01:31.500Z,98125.00
2023-01-19T13:04:09.382Z,98125.72
2023-01-19T13:06:48.973Z,98145.75
2023-01-19T13:09:28.555Z,98160.16
2023-01-19T13:12:11.067Z,98162.63
2023-01-19T13:14:38.329Z,98163.09
2023-01-19T13:17:24.417Z,98175.75
2023-01-19T13:19:53.040Z,98177.56
2023-01-19T13:22:39.496Z,98181.06
2023-01-19T13:25:06.900Z,98191.41
2023-01-19T13:27:34.765Z,98196.06
2023-01-19T13:30:02.176Z,98201.03
2023-01-19T13:32:29.757Z,98201.28
2023-01-19T13:34:59.153Z,98204.94
2023-01-19T13:37:27.427Z,98200.97
2023-01-19T13:39:54.675Z,98218.91
2023-01-19T13:42:26.357Z,98223.06
2023-01-19T13:44:53.812Z,98228.09
2023-01-19T13:47:25.597Z,98227.53
2023-01-19T13:49:57.011Z,98234.59
2023-01-19T13:52:25.301Z,98233.28
2023-01-19T13:55:03.489Z,98252.16
2023-01-19T13:57:31.877Z,98247.91
2023-01-19T14:00:12.167Z,98251.44
2023-01-19T14:02:40.304Z,98246.31
2023-01-19T14:05:24.652Z,98237.59
2023-01-19T14:08:12.101Z,98238.47
2023-01-19T14:10:39.490Z,98239.97
2023-01-19T14:13:13.221Z,98244.69
2023-01-19T14:15:40.883Z,98246.13
2023-01-19T14:18:28.681Z,98232.09
2023-01-19T14:20:56.214Z,98230.09
2023-01-19T14:23:35.816Z,98241.78
2023-01-19T14:26:03.321Z,98247.84
2023-01-19T14:28:39.467Z,98256.47
2023-01-19T14:31:23.859Z,98265.34
2023-01-19T14:33:52.629Z,98269.66
2023-01-19T14:36:30.177Z,98269.09
2023-01-19T14:38:58.638Z,98263.44
2023-01-19T14:41:35.302Z,98264.31
2023-01-19T14:44:03.257Z,98269.81
2023-01-19T14:46:30.777Z,98265.00
2023-01-19T14:49:00.727Z,98271.06
2023-01-19T14:51:27.919Z,98286.09
2023-01-19T14:53:58.559Z,98299.06
2023-01-19T14:56:26.854Z,98309.66
2023-01-19T14:58:55.214Z,98324.37
2023-01-19T15:01:23.259Z,98338.16
2023-01-19T15:03:50.695Z,98352.28
2023-01-19T15:06:19.086Z,98351.16
2023-01-19T15:08:46.748Z,98343.91
2023-01-19T15:11:23.677Z,98327.34
2023-01-19T15:13:51.466Z,98307.22
2023-01-19T15:16:18.732Z,98316.09
2023-01-19T15:18:46.034Z,98309.81
2023-01-19T15:21:15.294Z,98306.69
2023-01-19T15:23:42.527Z,98316.37
2023-01-19T15:26:10.226Z,98324.75
2023-01-19T15:28:37.722Z,98328.56
2023-01-19T15:31:05.200Z,98337.81
2023-01-19T15:33:32.635Z,98350.19
2023-01-19T15:36:00.146Z,98344.94
2023-01-19T15:38:27.782Z,98347.06
2023-01-19T15:40:55.102Z,98346.25
2023-01-19T15:43:22.586Z,98340.69
2023-01-19T15:45:51.016Z,98346.56
2023-01-19T15:48:19.959Z,98353.47
2023-01-19T15:50:47.863Z,98363.34
2023-01-19T15:53:16.263Z,98367.50
2023-01-19T15:55:43.616Z,98373.09
2023-01-19T15:58:13.885Z,98380.09
2023-01-19T16:00:41.447Z,98378.97
2023-01-19T16:03:09.923Z,98372.00
2023-01-19T16:05:42.906Z,98382.91
2023-01-19T16:08:11.351Z,98384.72
2023-01-19T16:10:38.935Z,98388.78
2023-01-19T16:13:06.253Z,98401.16
2023-01-19T16:15:36.769Z,98412.06
2023-01-19T16:18:04.525Z,98416.75
2023-01-19T16:20:31.781Z,98418.91
2023-01-19T16:23:13.828Z,98441.44
2023-01-19T16:25:41.998Z,98428.03
2023-01-19T16:28:09.514Z,98447.25
2023-01-19T16:30:36.701Z,98455.28
2023-01-19T16:33:05.330Z,98459.47
2023-01-19T16:35:32.890Z,98473.31
2023-01-19T16:38:00.105Z,98479.81
2023-01-19T16:40:27.344Z,98478.06
2023-01-19T16:42:54.804Z,98485.03
2023-01-19T16:45:22.207Z,98491.91
2023-01-19T16:47:52.173Z,98484.03
2023-01-19T16:50:19.778Z,98498.78
2023-01-19T16:52:46.944Z,98508.94
2023-01-19T16:55:14.118Z,98516.41
2023-01-19T16:57:41.711Z,98510.62
2023-01-19T17:00:10.463Z,98514.87
2023-01-19T17:02:38.164Z,98517.97
2023-01-19T17:05:06.036Z,98517.03
2023-01-19T17:07:33.329Z,98520.34
2023-01-19T17:10:00.772Z,98522.72
2023-01-19T17:12:29.366Z,98531.78
2023-01-19T17:14:58.187Z,98536.84
2023-01-19T17:17:25.499Z,98545.84
2023-01-19T17:19:53.129Z,98551.44
2023-01-19T17:22:20.351Z,98542.06
2023-01-19T17:24:47.782Z,98551.25
2023-01-19T17:27:15.285Z,98554.22
2023-01-19T17:29:42.606Z,98549.81
2023-01-19T17:32:11.046Z,98540.75
2023-01-19T17:34:38.557Z,98560.59
2023-01-19T17:37:05.829Z,98551.97
2023-01-19T17:39:33.609Z,98546.72
2023-01-19T17:42:01.333Z,98540.34
2023-01-19T17:44:28.574Z,98551.56
2023-01-19T17:46:56.428Z,98562.84
2023-01-19T17:49:24.621Z,98563.81
2023-01-19T17:51:54.345Z,98560.19
2023-01-19T17:54:21.982Z,98566.97
2023-01-19T17:56:50.970Z,98563.19
2023-01-19T17:59:18.358Z,98578.56
2023-01-19T18:01:46.524Z,98585.69
2023-01-19T18:04:14.193Z,98595.22
2023-01-19T18:06:41.713Z,98600.91
2023-01-19T18:09:09.156Z,98601.16
2023-01-19T18:11:36.773Z,98599.37
2023-01-19T18:14:04.234Z,98595.62
2023-01-19T18:16:32.554Z,98610.22
2023-01-19T18:19:00.468Z,98601.69
2023-01-19T18:21:28.854Z,98601.44
2023-01-19T18:24:00.116Z,98604.81
2023-01-19T18:26:28.436Z,98611.66
2023-01-19T18:28:59.215Z,98614.34
2023-01-19T18:31:26.722Z,98620.59
2023-01-19T18:33:54.530Z,98616.97
2023-01-19T18:36:21.926Z,98624.62
2023-01-19T18:38:49.984Z,98626.66
2023-01-19T18:41:18.624Z,98622.13
2023-01-19T18:43:46.695Z,98615.81
2023-01-19T18:46:14.622Z,98614.09
2023-01-19T18:48:42.357Z,98617.34
2023-01-19T18:51:10.573Z,98615.34
2023-01-19T18:53:38.071Z,98609.22
2023-01-19T18:56:06.130Z,98615.69
2023-01-19T18:58:34.511Z,98618.88
2023-01-19T19:01:02.017Z,98621.37
2023-01-19T19:03:29.840Z,98625.75
2023-01-19T19:05:57.246Z,98626.50
2023-01-19T19:08:24.610Z,98629.87
2023-01-19T19:10:52.285Z,98627.94
2023-01-19T19:13:21.838Z,98631.81
2023-01-19T19:15:49.260Z,98633.34
2023-01-19T19:18:16.958Z,98633.97
2023-01-19T19:20:44.800Z,98643.78
2023-01-19T19:23:12.690Z,98654.28
2023-01-19T19:25:40.426Z,98660.34
2023-01-19T19:28:07.908Z,98663.78
2023-01-19T19:30:37.868Z,98667.00
2023-01-19T19:33:05.576Z,98670.38
2023-01-19T19:35:32.929Z,98676.28
2023-01-19T19:38:00.299Z,98678.62
2023-01-19T19:40:28.116Z,98686.84
2023-01-19T19:42:58.531Z,98684.84
2023-01-19T19:45:26.319Z,98691.66
2023-01-19T19:47:54.276Z,98696.59
2023-01-19T19:50:21.724Z,98697.97
2023-01-19T19:52:49.063Z,98696.34
2023-01-19T19:55:16.741Z,98702.19
2023-01-19T19:57:44.260Z,98700.84
2023-01-19T20:00:12.140Z,98699.94
2023-01-19T20:02:40.027Z,98700.41
2023-01-19T20:05:07.571Z,98710.66
2023-01-19T20:07:35.023Z,98712.19
2023-01-19T20:10:02.498Z,98703.94
2023-01-19T20:12:29.874Z,98700.91
2023-01-19T20:14:57.322Z,98689.53
2023-01-19T20:17:25.116Z,98693.59
2023-01-19T20:19:52.688Z,98696.41
2023-01-19T20:22:20.247Z,98705.00
2023-01-19T20:24:48.009Z,98699.69
2023-01-19T20:27:15.419Z,98703.88
2023-01-19T20:29:42.831Z,98709.25
2023-01-19T20:32:10.837Z,98699.47
2023-01-19T20:34:38.563Z,98693.59
2023-01-19T20:37:06.222Z,98689.41
2023-01-19T20:39:35.361Z,98688.81
2023-01-19T20:42:02.715Z,98692.22
2023-01-19T20:44:30.341Z,98693.31
2023-01-19T20:46:58.019Z,98697.25
2023-01-19T20:49:25.569Z,98688.44
2023-01-19T20:51:53.440Z,98680.28
2023-01-19T20:54:22.808Z,98684.25
2023-01-19T20:56:50.171Z,98682.81
2023-01-19T20:59:17.667Z,98688.78
2023-01-19T21:01:45.487Z,98691.16
2023-01-19T21:04:13.064Z,98694.16
2023-01-19T21:06:40.334Z,98684.78
2023-01-19T21:09:08.976Z,98690.59
2023-01-19T21:11:36.750Z,98690.50
2023-01-19T21:14:04.183Z,98689.06
2023-01-19T21:16:32.959Z,98695.75
2023-01-19T21:19:00.329Z,98693.66
2023-01-19T21:21:31.903Z,98698.28
2023-01-19T21:24:00.807Z,98699.56
2023-01-19T21:26:29.837Z,98699.63
2023-01-19T21:28:58.200Z,98700.53
2023-01-19T21:31:27.550Z,98696.81
2023-01-19T21:33:55.447Z,98702.66
2023-01-19T21:36:23.064Z,98712.59
2023-01-19T21:38:51.538Z,98732.91
2023-01-19T21:41:18.978Z,98740.66
2023-01-19T21:43:46.352Z,98736.97
2023-01-19T21:46:15.211Z,98738.16
2023-01-19T21:48:42.533Z,98742.69
2023-01-19T21:51:09.951Z,98750.25
2023-01-19T21:53:37.567Z,98759.63
2023-01-19T21:56:06.125Z,98790.28
2023-01-19T21:58:33.353Z,98830.13
2023-01-19T22:01:05.055Z,98856.88
2023-01-19T22:03:32.754Z,98852.28
2023-01-19T22:06:06.947Z,98846.31
2023-01-19T22:08:34.626Z,98826.41
2023-01-19T22:11:05.039Z,98816.03
2023-01-19T22:13:32.923Z,98802.25
2023-01-19T22:16:01.191Z,98786.84
2023-01-19T22:18:28.452Z,98784.16
2023-01-19T22:20:55.589Z,98792.56
2023-01-19T22:23:23.098Z,98799.22
2023-01-19T22:25:50.254Z,98803.78
2023-01-19T22:28:17.442Z,98798.03
2023-01-19T22:30:45.585Z,98790.25
2023-01-19T22:33:12.830Z,98783.97
2023-01-19T22:35:39.997Z,98791.72
2023-01-19T22:38:07.613Z,98798.88
2023-01-19T22:40:34.813Z,98798.72
2023-01-19T22:43:02.006Z,98796.28
2023-01-19T22:45:29.423Z,98800.16
2023-01-19T22:47:56.614Z,98792.22
2023-01-19T22:50:23.802Z,98786.50
2023-01-19T22:52:54.895Z,98792.44
2023-01-19T22:55:22.124Z,98775.13
2023-01-19T22:57:49.308Z,98771.06
2023-01-19T23:00:17.013Z,98773.41
2023-01-19T23:02:44.173Z,98772.47
2023-01-19T23:05:11.840Z,98785.03
2023-01-19T23:07:39.822Z,98777.03
2023-01-19T23:10:07.306Z,98777.41
2023-01-19T23:12:34.508Z,98771.97
2023-01-19T23:15:01.972Z,98769.06
2023-01-19T23:17:29.184Z,98748.84
2023-01-19T23:19:56.459Z,98750.53
2023-01-19T23:22:23.958Z,98742.53
2023-01-19T23:24:51.138Z,98731.31
2023-01-19T23:27:18.323Z,98739.91
2023-01-19T23:29:45.818Z,98737.13
2023-01-19T23:32:12.992Z,98738.94
2023-01-19T23:34:40.176Z,98733.59
2023-01-19T23:37:07.597Z,98723.06
2023-01-19T23:39:34.768Z,98740.28
2023-01-19T23:42:03.577Z,98751.84
2023-01-19T23:44:30.995Z,98768.22
2023-01-19T23:46:58.230Z,98784.09
2023-01-19T23:49:25.497Z,98784.03
2023-01-19T23:51:53.113Z,98777.62
2023-01-19T23:54:20.375Z,98793.97
2023-01-19T23:56:47.572Z,98794.56
2023-01-19T23:59:15.455Z,98780.06
